sensor_id;sensor_type;location;lat;lon;timestamp;temperature;humidity
22827;DHT22;11580;52.562;13.418;2024-02-21T00:02:01;13.20;31.70
22827;DHT22;11580;52.562;13.418;2024-02-21T00:04:28;13.20;31.50
22827;DHT22;11580;52.562;13.418;2024-02-21T00:06:55;13.40;31.80
22827;DHT22;11580;52.562;13.418;2024-02-21T00:09:22;13.30;31.60
22827;DHT22;11580;52.562;13.418;2024-02-21T00:11:49;13.30;31.50
22827;DHT22;11580;52.562;13.418;2024-02-21T00:14:16;13.30;31.50
22827;DHT22;11580;52.562;13.418;2024-02-21T00:16:43;13.30;31.30
22827;DHT22;11580;52.562;13.418;2024-02-21T00:19:12;13.30;31.20
22827;DHT22;11580;52.562;13.418;2024-02-21T00:21:40;13.30;31.60
22827;DHT22;11580;52.562;13.418;2024-02-21T00:24:07;13.30;31.20
22827;DHT22;11580;52.562;13.418;2024-02-21T00:26:34;13.30;31.20
22827;DHT22;11580;52.562;13.418;2024-02-21T00:29:01;13.30;31.20
22827;DHT22;11580;52.562;13.418;2024-02-21T00:31:28;13.30;32.00
22827;DHT22;11580;52.562;13.418;2024-02-21T00:33:56;13.30;32.10
22827;DHT22;11580;52.562;13.418;2024-02-21T00:36:25;13.30;31.40
22827;DHT22;11580;52.562;13.418;2024-02-21T00:38:52;13.40;31.30
22827;DHT22;11580;52.562;13.418;2024-02-21T00:41:20;13.40;31.50
22827;DHT22;11580;52.562;13.418;2024-02-21T00:43:47;13.40;31.50
22827;DHT22;11580;52.562;13.418;2024-02-21T00:46:15;13.40;31.50
22827;DHT22;11580;52.562;13.418;2024-02-21T00:48:42;13.30;31.40
22827;DHT22;11580;52.562;13.418;2024-02-21T00:51:10;13.40;31.40
22827;DHT22;11580;52.562;13.418;2024-02-21T00:53:38;13.30;31.30
22827;DHT22;11580;52.562;13.418;2024-02-21T00:56:06;13.30;31.20
22827;DHT22;11580;52.562;13.418;2024-02-21T00:58:33;13.30;31.30
22827;DHT22;11580;52.562;13.418;2024-02-21T01:01:00;13.30;31.40
22827;DHT22;11580;52.562;13.418;2024-02-21T01:03:28;13.40;31.40
22827;DHT22;11580;52.562;13.418;2024-02-21T01:05:55;13.30;31.30
22827;DHT22;11580;52.562;13.418;2024-02-21T01:08:23;13.50;31.40
22827;DHT22;11580;52.562;13.418;2024-02-21T01:10:51;13.30;31.20
22827;DHT22;11580;52.562;13.418;2024-02-21T01:13:18;13.30;30.80
22827;DHT22;11580;52.562;13.418;2024-02-21T01:15:46;13.30;31.60
22827;DHT22;11580;52.562;13.418;2024-02-21T01:18:13;13.30;31.00
22827;DHT22;11580;52.562;13.418;2024-02-21T01:20:40;13.20;30.90
22827;DHT22;11580;52.562;13.418;2024-02-21T01:23:07;13.30;31.00
22827;DHT22;11580;52.562;13.418;2024-02-21T01:25:35;13.20;31.00
22827;DHT22;11580;52.562;13.418;2024-02-21T01:28:03;13.40;31.30
22827;DHT22;11580;52.562;13.418;2024-02-21T01:30:31;13.20;30.80
22827;DHT22;11580;52.562;13.418;2024-02-21T01:32:58;13.20;31.30
22827;DHT22;11580;52.562;13.418;2024-02-21T01:35:25;13.20;31.20
22827;DHT22;11580;52.562;13.418;2024-02-21T01:37:52;13.20;31.20
22827;DHT22;11580;52.562;13.418;2024-02-21T01:40:19;13.30;31.20
22827;DHT22;11580;52.562;13.418;2024-02-21T01:42:47;13.30;31.30
22827;DHT22;11580;52.562;13.418;2024-02-21T01:45:15;13.30;31.90
22827;DHT22;11580;52.562;13.418;2024-02-21T01:47:43;13.30;30.80
22827;DHT22;11580;52.562;13.418;2024-02-21T01:50:12;13.40;31.10
22827;DHT22;11580;52.562;13.418;2024-02-21T01:52:41;13.40;30.90
22827;DHT22;11580;52.562;13.418;2024-02-21T01:55:10;13.40;30.90
22827;DHT22;11580;52.562;13.418;2024-02-21T01:57:39;13.40;30.90
22827;DHT22;11580;52.562;13.418;2024-02-21T02:00:10;13.40;30.90
22827;DHT22;11580;52.562;13.418;2024-02-21T02:02:42;13.40;30.90
22827;DHT22;11580;52.562;13.418;2024-02-21T02:05:10;13.50;31.00
22827;DHT22;11580;52.562;13.418;2024-02-21T02:07:38;13.50;31.00
22827;DHT22;11580;52.562;13.418;2024-02-21T02:10:06;13.50;31.00
22827;DHT22;11580;52.562;13.418;2024-02-21T02:12:35;13.50;31.00
22827;DHT22;11580;52.562;13.418;2024-02-21T02:15:03;13.50;31.00
22827;DHT22;11580;52.562;13.418;2024-02-21T02:17:31;13.50;31.00
22827;DHT22;11580;52.562;13.418;2024-02-21T02:20:00;13.50;31.00
22827;DHT22;11580;52.562;13.418;2024-02-21T02:22:28;13.50;31.00
22827;DHT22;11580;52.562;13.418;2024-02-21T02:24:59;13.50;31.00
22827;DHT22;11580;52.562;13.418;2024-02-21T02:27:26;13.50;31.00
22827;DHT22;11580;52.562;13.418;2024-02-21T02:29:53;13.60;31.10
22827;DHT22;11580;52.562;13.418;2024-02-21T02:32:21;13.50;31.00
22827;DHT22;11580;52.562;13.418;2024-02-21T02:34:48;13.60;31.10
22827;DHT22;11580;52.562;13.418;2024-02-21T02:37:15;13.50;31.00
22827;DHT22;11580;52.562;13.418;2024-02-21T02:39:42;13.50;31.80
22827;DHT22;11580;52.562;13.418;2024-02-21T02:42:11;13.50;31.40
22827;DHT22;11580;52.562;13.418;2024-02-21T02:44:38;13.40;32.10
22827;DHT22;11580;52.562;13.418;2024-02-21T02:47:05;13.50;32.40
22827;DHT22;11580;52.562;13.418;2024-02-21T02:49:32;13.40;31.70
22827;DHT22;11580;52.562;13.418;2024-02-21T02:51:59;13.40;31.80
22827;DHT22;11580;52.562;13.418;2024-02-21T02:54:26;13.50;32.00
22827;DHT22;11580;52.562;13.418;2024-02-21T02:56:53;13.30;32.00
22827;DHT22;11580;52.562;13.418;2024-02-21T02:59:22;13.30;32.10
22827;DHT22;11580;52.562;13.418;2024-02-21T03:01:49;13.30;32.10
22827;DHT22;11580;52.562;13.418;2024-02-21T03:04:16;13.30;32.20
22827;DHT22;11580;52.562;13.418;2024-02-21T03:06:43;13.30;32.40
22827;DHT22;11580;52.562;13.418;2024-02-21T03:09:11;13.20;32.50
22827;DHT22;11580;52.562;13.418;2024-02-21T03:11:38;13.20;32.60
22827;DHT22;11580;52.562;13.418;2024-02-21T03:14:06;13.20;32.70
22827;DHT22;11580;52.562;13.418;2024-02-21T03:16:35;13.20;33.50
22827;DHT22;11580;52.562;13.418;2024-02-21T03:19:02;13.20;32.90
22827;DHT22;11580;52.562;13.418;2024-02-21T03:21:29;13.30;33.10
22827;DHT22;11580;52.562;13.418;2024-02-21T03:23:56;13.30;33.10
22827;DHT22;11580;52.562;13.418;2024-02-21T03:26:23;13.10;33.10
22827;DHT22;11580;52.562;13.418;2024-02-21T03:28:50;13.10;33.10
22827;DHT22;11580;52.562;13.418;2024-02-21T03:31:17;13.10;33.30
22827;DHT22;11580;52.562;13.418;2024-02-21T03:33:46;13.00;34.10
22827;DHT22;11580;52.562;13.418;2024-02-21T03:36:13;13.00;33.50
22827;DHT22;11580;52.562;13.418;2024-02-21T03:38:41;13.00;33.60
22827;DHT22;11580;52.562;13.418;2024-02-21T03:41:08;13.00;33.70
22827;DHT22;11580;52.562;13.418;2024-02-21T03:43:37;13.00;33.90
22827;DHT22;11580;52.562;13.418;2024-02-21T03:46:05;13.00;34.10
22827;DHT22;11580;52.562;13.418;2024-02-21T03:48:33;12.90;34.00
22827;DHT22;11580;52.562;13.418;2024-02-21T03:51:01;12.90;34.20
22827;DHT22;11580;52.562;13.418;2024-02-21T03:53:29;12.90;34.30
22827;DHT22;11580;52.562;13.418;2024-02-21T03:55:56;12.90;34.30
22827;DHT22;11580;52.562;13.418;2024-02-21T03:58:28;12.90;34.40
22827;DHT22;11580;52.562;13.418;2024-02-21T04:00:55;12.90;35.20
22827;DHT22;11580;52.562;13.418;2024-02-21T04:03:22;12.90;34.50
22827;DHT22;11580;52.562;13.418;2024-02-21T04:05:49;12.90;34.60
22827;DHT22;11580;52.562;13.418;2024-02-21T04:08:18;12.80;34.50
22827;DHT22;11580;52.562;13.418;2024-02-21T04:10:45;12.80;35.30
22827;DHT22;11580;52.562;13.418;2024-02-21T04:13:13;12.80;34.70
22827;DHT22;11580;52.562;13.418;2024-02-21T04:15:41;12.80;34.70
22827;DHT22;11580;52.562;13.418;2024-02-21T04:18:08;12.80;34.80
22827;DHT22;11580;52.562;13.418;2024-02-21T04:20:35;12.80;34.90
22827;DHT22;11580;52.562;13.418;2024-02-21T04:23:03;12.90;34.90
22827;DHT22;11580;52.562;13.418;2024-02-21T04:25:31;12.90;34.90
22827;DHT22;11580;52.562;13.418;2024-02-21T04:27:58;12.90;34.90
22827;DHT22;11580;52.562;13.418;2024-02-21T04:30:26;12.90;34.90
22827;DHT22;11580;52.562;13.418;2024-02-21T04:32:53;13.00;35.00
22827;DHT22;11580;52.562;13.418;2024-02-21T04:35:20;12.90;34.90
22827;DHT22;11580;52.562;13.418;2024-02-21T04:37:49;12.90;34.90
22827;DHT22;11580;52.562;13.418;2024-02-21T04:40:16;12.90;34.90
22827;DHT22;11580;52.562;13.418;2024-02-21T04:42:45;12.90;34.90
22827;DHT22;11580;52.562;13.418;2024-02-21T04:45:12;12.90;34.90
22827;DHT22;11580;52.562;13.418;2024-02-21T04:47:39;12.90;35.00
22827;DHT22;11580;52.562;13.418;2024-02-21T04:50:07;12.90;35.00
22827;DHT22;11580;52.562;13.418;2024-02-21T04:52:34;12.90;35.00
22827;DHT22;11580;52.562;13.418;2024-02-21T04:55:02;13.00;35.00
22827;DHT22;11580;52.562;13.418;2024-02-21T04:57:29;13.00;35.00
22827;DHT22;11580;52.562;13.418;2024-02-21T04:59:58;13.00;35.00
22827;DHT22;11580;52.562;13.418;2024-02-21T05:02:25;13.20;35.10
22827;DHT22;11580;52.562;13.418;2024-02-21T05:04:52;13.00;34.90
22827;DHT22;11580;52.562;13.418;2024-02-21T05:07:20;13.00;34.90
22827;DHT22;11580;52.562;13.418;2024-02-21T05:09:47;13.10;35.00
22827;DHT22;11580;52.562;13.418;2024-02-21T05:12:14;13.10;34.90
22827;DHT22;11580;52.562;13.418;2024-02-21T05:14:41;13.10;34.90
22827;DHT22;11580;52.562;13.418;2024-02-21T05:17:10;13.10;34.80
22827;DHT22;11580;52.562;13.418;2024-02-21T05:19:37;13.10;34.80
22827;DHT22;11580;52.562;13.418;2024-02-21T05:22:04;13.10;34.80
22827;DHT22;11580;52.562;13.418;2024-02-21T05:24:31;13.10;34.70
22827;DHT22;11580;52.562;13.418;2024-02-21T05:26:59;13.30;34.90
22827;DHT22;11580;52.562;13.418;2024-02-21T05:29:26;13.10;34.70
22827;DHT22;11580;52.562;13.418;2024-02-21T05:31:56;13.10;35.30
22827;DHT22;11580;52.562;13.418;2024-02-21T05:34:26;13.10;35.20
22827;DHT22;11580;52.562;13.418;2024-02-21T05:36:54;13.10;34.60
22827;DHT22;11580;52.562;13.418;2024-02-21T05:39:21;13.10;34.70
22827;DHT22;11580;52.562;13.418;2024-02-21T05:41:49;13.20;34.70
22827;DHT22;11580;52.562;13.418;2024-02-21T05:44:17;13.10;34.70
22827;DHT22;11580;52.562;13.418;2024-02-21T05:46:44;13.10;34.70
22827;DHT22;11580;52.562;13.418;2024-02-21T05:49:13;13.20;34.80
22827;DHT22;11580;52.562;13.418;2024-02-21T05:51:41;13.10;34.70
22827;DHT22;11580;52.562;13.418;2024-02-21T05:54:08;13.10;34.60
22827;DHT22;11580;52.562;13.418;2024-02-21T05:56:36;13.10;34.70
22827;DHT22;11580;52.562;13.418;2024-02-21T05:59:03;13.10;34.70
22827;DHT22;11580;52.562;13.418;2024-02-21T06:01:30;13.10;34.70
22827;DHT22;11580;52.562;13.418;2024-02-21T06:03:57;13.20;34.90
22827;DHT22;11580;52.562;13.418;2024-02-21T06:06:24;13.20;34.70
22827;DHT22;11580;52.562;13.418;2024-02-21T06:08:53;13.20;35.40
22827;DHT22;11580;52.562;13.418;2024-02-21T06:11:20;13.20;34.60
22827;DHT22;11580;52.562;13.418;2024-02-21T06:13:47;13.20;34.60
22827;DHT22;11580;52.562;13.418;2024-02-21T06:16:14;13.20;34.70
22827;DHT22;11580;52.562;13.418;2024-02-21T06:18:41;13.20;34.60
22827;DHT22;11580;52.562;13.418;2024-02-21T06:21:09;13.30;35.40
22827;DHT22;11580;52.562;13.418;2024-02-21T06:23:37;13.20;34.60
22827;DHT22;11580;52.562;13.418;2024-02-21T06:26:06;13.20;34.60
22827;DHT22;11580;52.562;13.418;2024-02-21T06:28:33;13.20;34.50
22827;DHT22;11580;52.562;13.418;2024-02-21T06:31:00;13.20;34.60
22827;DHT22;11580;52.562;13.418;2024-02-21T06:33:27;13.20;34.60
22827;DHT22;11580;52.562;13.418;2024-02-21T06:35:54;13.20;34.60
22827;DHT22;11580;52.562;13.418;2024-02-21T06:38:22;13.20;34.50
22827;DHT22;11580;52.562;13.418;2024-02-21T06:40:49;13.20;34.50
22827;DHT22;11580;52.562;13.418;2024-02-21T06:43:20;13.20;34.60
22827;DHT22;11580;52.562;13.418;2024-02-21T06:45:48;13.20;35.20
22827;DHT22;11580;52.562;13.418;2024-02-21T06:48:17;13.20;34.70
22827;DHT22;11580;52.562;13.418;2024-02-21T06:50:45;13.20;34.60
22827;DHT22;11580;52.562;13.418;2024-02-21T06:53:12;13.40;34.80
22827;DHT22;11580;52.562;13.418;2024-02-21T06:55:39;13.20;34.70
22827;DHT22;11580;52.562;13.418;2024-02-21T06:58:06;13.20;34.50
22827;DHT22;11580;52.562;13.418;2024-02-21T07:00:38;13.30;34.60
22827;DHT22;11580;52.562;13.418;2024-02-21T07:03:06;13.30;34.40
22827;DHT22;11580;52.562;13.418;2024-02-21T07:05:33;13.30;34.50
22827;DHT22;11580;52.562;13.418;2024-02-21T07:08:01;13.30;34.50
22827;DHT22;11580;52.562;13.418;2024-02-21T07:10:28;13.30;34.40
22827;DHT22;11580;52.562;13.418;2024-02-21T07:12:56;13.40;34.50
22827;DHT22;11580;52.562;13.418;2024-02-21T07:15:23;13.40;34.50
22827;DHT22;11580;52.562;13.418;2024-02-21T07:17:53;13.30;34.40
22827;DHT22;11580;52.562;13.418;2024-02-21T07:20:21;13.40;34.40
22827;DHT22;11580;52.562;13.418;2024-02-21T07:22:48;13.40;35.20
22827;DHT22;11580;52.562;13.418;2024-02-21T07:25:15;13.40;34.40
22827;DHT22;11580;52.562;13.418;2024-02-21T07:27:43;13.40;34.40
22827;DHT22;11580;52.562;13.418;2024-02-21T07:30:11;13.40;34.40
22827;DHT22;11580;52.562;13.418;2024-02-21T07:32:39;13.50;34.50
22827;DHT22;11580;52.562;13.418;2024-02-21T07:35:08;13.50;34.50
22827;DHT22;11580;52.562;13.418;2024-02-21T07:37:37;13.50;35.10
22827;DHT22;11580;52.562;13.418;2024-02-21T07:40:06;13.60;34.70
22827;DHT22;11580;52.562;13.418;2024-02-21T07:42:38;13.60;34.50
22827;DHT22;11580;52.562;13.418;2024-02-21T07:45:06;13.80;34.70
22827;DHT22;11580;52.562;13.418;2024-02-21T07:47:34;13.70;34.40
22827;DHT22;11580;52.562;13.418;2024-02-21T07:50:01;13.70;34.30
22827;DHT22;11580;52.562;13.418;2024-02-21T07:52:30;13.70;34.20
22827;DHT22;11580;52.562;13.418;2024-02-21T07:54:57;13.80;33.90
22827;DHT22;11580;52.562;13.418;2024-02-21T07:57:24;13.80;34.10
22827;DHT22;11580;52.562;13.418;2024-02-21T07:59:52;13.80;34.00
22827;DHT22;11580;52.562;13.418;2024-02-21T08:02:19;13.90;34.00
22827;DHT22;11580;52.562;13.418;2024-02-21T08:04:46;13.90;33.90
22827;DHT22;11580;52.562;13.418;2024-02-21T08:07:13;13.90;33.80
22827;DHT22;11580;52.562;13.418;2024-02-21T08:09:42;14.00;33.90
22827;DHT22;11580;52.562;13.418;2024-02-21T08:12:09;14.00;34.30
22827;DHT22;11580;52.562;13.418;2024-02-21T08:14:36;14.00;33.70
22827;DHT22;11580;52.562;13.418;2024-02-21T08:17:03;14.00;34.10
22827;DHT22;11580;52.562;13.418;2024-02-21T08:19:31;14.10;33.60
22827;DHT22;11580;52.562;13.418;2024-02-21T08:21:58;14.10;33.70
22827;DHT22;11580;52.562;13.418;2024-02-21T08:24:26;14.10;33.60
22827;DHT22;11580;52.562;13.418;2024-02-21T08:26:54;14.20;33.90
22827;DHT22;11580;52.562;13.418;2024-02-21T08:29:21;14.20;33.90
22827;DHT22;11580;52.562;13.418;2024-02-21T08:31:48;14.20;33.40
22827;DHT22;11580;52.562;13.418;2024-02-21T08:34:16;14.30;34.20
22827;DHT22;11580;52.562;13.418;2024-02-21T08:36:44;14.30;33.50
22827;DHT22;11580;52.562;13.418;2024-02-21T08:39:11;14.40;33.60
22827;DHT22;11580;52.562;13.418;2024-02-21T08:41:42;14.40;33.50
22827;DHT22;11580;52.562;13.418;2024-02-21T08:44:11;14.50;33.50
22827;DHT22;11580;52.562;13.418;2024-02-21T08:46:38;14.60;33.20
22827;DHT22;11580;52.562;13.418;2024-02-21T08:49:06;14.60;33.40
22827;DHT22;11580;52.562;13.418;2024-02-21T08:51:33;14.70;34.20
22827;DHT22;11580;52.562;13.418;2024-02-21T08:54:01;14.80;33.50
22827;DHT22;11580;52.562;13.418;2024-02-21T08:56:30;14.90;33.50
22827;DHT22;11580;52.562;13.418;2024-02-21T08:58:58;15.00;32.60
22827;DHT22;11580;52.562;13.418;2024-02-21T09:01:27;15.10;33.50
22827;DHT22;11580;52.562;13.418;2024-02-21T09:03:55;15.20;32.50
22827;DHT22;11580;52.562;13.418;2024-02-21T09:06:22;15.30;32.50
22827;DHT22;11580;52.562;13.418;2024-02-21T09:08:49;15.30;32.50
22827;DHT22;11580;52.562;13.418;2024-02-21T09:11:17;15.40;32.60
22827;DHT22;11580;52.562;13.418;2024-02-21T09:13:44;15.40;32.40
22827;DHT22;11580;52.562;13.418;2024-02-21T09:16:11;15.50;32.20
22827;DHT22;11580;52.562;13.418;2024-02-21T09:18:39;15.50;32.10
22827;DHT22;11580;52.562;13.418;2024-02-21T09:21:06;15.50;31.50
22827;DHT22;11580;52.562;13.418;2024-02-21T09:23:34;15.60;32.50
22827;DHT22;11580;52.562;13.418;2024-02-21T09:26:01;15.60;31.70
22827;DHT22;11580;52.562;13.418;2024-02-21T09:28:29;15.60;31.70
22827;DHT22;11580;52.562;13.418;2024-02-21T09:30:57;15.60;31.70
22827;DHT22;11580;52.562;13.418;2024-02-21T09:33:24;15.60;32.40
22827;DHT22;11580;52.562;13.418;2024-02-21T09:35:52;15.70;31.60
22827;DHT22;11580;52.562;13.418;2024-02-21T09:38:20;15.70;31.10
22827;DHT22;11580;52.562;13.418;2024-02-21T09:40:48;15.70;31.60
22827;DHT22;11580;52.562;13.418;2024-02-21T09:43:23;15.80;31.80
22827;DHT22;11580;52.562;13.418;2024-02-21T09:45:51;15.80;31.90
22827;DHT22;11580;52.562;13.418;2024-02-21T09:48:42;15.90;31.50
22827;DHT22;11580;52.562;13.418;2024-02-21T09:51:21;16.00;30.10
22827;DHT22;11580;52.562;13.418;2024-02-21T09:53:50;16.10;31.20
22827;DHT22;11580;52.562;13.418;2024-02-21T09:56:19;16.20;31.40
22827;DHT22;11580;52.562;13.418;2024-02-21T09:58:47;16.30;31.30
22827;DHT22;11580;52.562;13.418;2024-02-21T10:01:14;16.40;31.00
22827;DHT22;11580;52.562;13.418;2024-02-21T10:03:42;16.40;31.60
22827;DHT22;11580;52.562;13.418;2024-02-21T10:06:09;16.50;30.60
22827;DHT22;11580;52.562;13.418;2024-02-21T10:08:38;16.50;30.50
22827;DHT22;11580;52.562;13.418;2024-02-21T10:11:05;16.50;30.00
22827;DHT22;11580;52.562;13.418;2024-02-21T10:13:35;16.50;30.30
22827;DHT22;11580;52.562;13.418;2024-02-21T10:16:05;16.60;30.10
22827;DHT22;11580;52.562;13.418;2024-02-21T10:18:33;16.60;29.90
22827;DHT22;11580;52.562;13.418;2024-02-21T10:21:02;16.60;30.00
22827;DHT22;11580;52.562;13.418;2024-02-21T10:23:29;16.60;30.00
22827;DHT22;11580;52.562;13.418;2024-02-21T10:26:09;16.60;30.00
22827;DHT22;11580;52.562;13.418;2024-02-21T10:28:37;16.60;29.70
22827;DHT22;11580;52.562;13.418;2024-02-21T10:31:08;16.70;30.00
22827;DHT22;11580;52.562;13.418;2024-02-21T10:33:36;16.70;30.00
22827;DHT22;11580;52.562;13.418;2024-02-21T10:36:08;16.80;30.00
22827;DHT22;11580;52.562;13.418;2024-02-21T10:38:36;16.80;29.30
22827;DHT22;11580;52.562;13.418;2024-02-21T10:41:05;16.90;29.90
22827;DHT22;11580;52.562;13.418;2024-02-21T10:43:39;16.90;29.80
22827;DHT22;11580;52.562;13.418;2024-02-21T10:46:07;17.00;28.70
22827;DHT22;11580;52.562;13.418;2024-02-21T10:48:42;17.10;29.80
22827;DHT22;11580;52.562;13.418;2024-02-21T10:51:17;17.10;28.60
22827;DHT22;11580;52.562;13.418;2024-02-21T10:53:53;17.10;28.40
22827;DHT22;11580;52.562;13.418;2024-02-21T10:56:29;17.10;28.40
22827;DHT22;11580;52.562;13.418;2024-02-21T10:59:04;17.10;29.00
22827;DHT22;11580;52.562;13.418;2024-02-21T11:01:32;17.10;28.90
22827;DHT22;11580;52.562;13.418;2024-02-21T11:04:02;17.00;29.20
22827;DHT22;11580;52.562;13.418;2024-02-21T11:06:33;17.00;29.00
22827;DHT22;11580;52.562;13.418;2024-02-21T11:09:03;16.90;29.00
22827;DHT22;11580;52.562;13.418;2024-02-21T11:11:33;16.90;29.30
22827;DHT22;11580;52.562;13.418;2024-02-21T11:14:06;16.80;29.20
22827;DHT22;11580;52.562;13.418;2024-02-21T11:16:38;16.80;28.80
22827;DHT22;11580;52.562;13.418;2024-02-21T11:19:10;16.80;29.20
22827;DHT22;11580;52.562;13.418;2024-02-21T11:21:46;16.70;29.40
22827;DHT22;11580;52.562;13.418;2024-02-21T11:24:25;16.80;30.00
22827;DHT22;11580;52.562;13.418;2024-02-21T11:26:54;16.80;28.90
22827;DHT22;11580;52.562;13.418;2024-02-21T11:29:26;16.90;30.00
22827;DHT22;11580;52.562;13.418;2024-02-21T11:31:55;16.90;29.40
22827;DHT22;11580;52.562;13.418;2024-02-21T11:34:22;17.00;30.00
22827;DHT22;11580;52.562;13.418;2024-02-21T11:36:50;17.10;30.30
22827;DHT22;11580;52.562;13.418;2024-02-21T11:39:20;17.20;30.30
22827;DHT22;11580;52.562;13.418;2024-02-21T11:42:00;17.30;30.10
22827;DHT22;11580;52.562;13.418;2024-02-21T11:44:30;17.50;28.80
22827;DHT22;11580;52.562;13.418;2024-02-21T11:46:58;17.70;29.70
22827;DHT22;11580;52.562;13.418;2024-02-21T11:49:25;17.70;29.90
22827;DHT22;11580;52.562;13.418;2024-02-21T11:51:58;17.90;29.80
22827;DHT22;11580;52.562;13.418;2024-02-21T11:54:26;18.00;28.60
22827;DHT22;11580;52.562;13.418;2024-02-21T11:56:53;18.10;29.30
22827;DHT22;11580;52.562;13.418;2024-02-21T11:59:21;18.20;29.10
22827;DHT22;11580;52.562;13.418;2024-02-21T12:01:49;18.20;29.00
22827;DHT22;11580;52.562;13.418;2024-02-21T12:04:18;18.30;28.50
22827;DHT22;11580;52.562;13.418;2024-02-21T12:06:46;18.30;29.20
22827;DHT22;11580;52.562;13.418;2024-02-21T12:09:14;18.40;28.60
22827;DHT22;11580;52.562;13.418;2024-02-21T12:11:42;18.40;28.30
22827;DHT22;11580;52.562;13.418;2024-02-21T12:14:10;18.40;28.40
22827;DHT22;11580;52.562;13.418;2024-02-21T12:16:37;18.50;28.40
22827;DHT22;11580;52.562;13.418;2024-02-21T12:19:07;18.50;28.30
22827;DHT22;11580;52.562;13.418;2024-02-21T12:21:35;18.50;27.70
22827;DHT22;11580;52.562;13.418;2024-02-21T12:24:11;18.50;28.10
22827;DHT22;11580;52.562;13.418;2024-02-21T12:26:39;18.50;26.70
22827;DHT22;11580;52.562;13.418;2024-02-21T12:29:07;18.50;28.60
22827;DHT22;11580;52.562;13.418;2024-02-21T12:31:35;18.50;28.10
22827;DHT22;11580;52.562;13.418;2024-02-21T12:34:02;18.50;28.00
22827;DHT22;11580;52.562;13.418;2024-02-21T12:36:31;18.50;28.10
22827;DHT22;11580;52.562;13.418;2024-02-21T12:38:58;18.60;27.70
22827;DHT22;11580;52.562;13.418;2024-02-21T12:41:26;18.60;28.30
22827;DHT22;11580;52.562;13.418;2024-02-21T12:43:53;18.60;27.90
22827;DHT22;11580;52.562;13.418;2024-02-21T12:46:21;18.60;27.50
22827;DHT22;11580;52.562;13.418;2024-02-21T12:48:49;18.60;28.00
22827;DHT22;11580;52.562;13.418;2024-02-21T12:51:16;18.50;27.90
22827;DHT22;11580;52.562;13.418;2024-02-21T12:53:48;18.40;27.40
22827;DHT22;11580;52.562;13.418;2024-02-21T12:56:15;18.40;27.10
22827;DHT22;11580;52.562;13.418;2024-02-21T12:58:43;18.30;27.50
22827;DHT22;11580;52.562;13.418;2024-02-21T13:01:10;18.20;27.60
22827;DHT22;11580;52.562;13.418;2024-02-21T13:03:38;18.20;27.80
22827;DHT22;11580;52.562;13.418;2024-02-21T13:06:05;18.20;27.90
22827;DHT22;11580;52.562;13.418;2024-02-21T13:08:35;18.20;27.90
22827;DHT22;11580;52.562;13.418;2024-02-21T13:11:04;18.20;27.90
22827;DHT22;11580;52.562;13.418;2024-02-21T13:13:32;18.20;27.60
22827;DHT22;11580;52.562;13.418;2024-02-21T13:15:59;18.20;27.90
22827;DHT22;11580;52.562;13.418;2024-02-21T13:18:27;18.20;27.80
22827;DHT22;11580;52.562;13.418;2024-02-21T13:20:54;18.20;27.80
22827;DHT22;11580;52.562;13.418;2024-02-21T13:23:22;18.20;27.70
22827;DHT22;11580;52.562;13.418;2024-02-21T13:25:49;18.10;27.60
22827;DHT22;11580;52.562;13.418;2024-02-21T13:28:17;18.10;27.60
22827;DHT22;11580;52.562;13.418;2024-02-21T13:30:45;18.10;27.30
22827;DHT22;11580;52.562;13.418;2024-02-21T13:33:13;18.00;27.60
22827;DHT22;11580;52.562;13.418;2024-02-21T13:35:40;18.00;27.50
22827;DHT22;11580;52.562;13.418;2024-02-21T13:38:07;18.00;27.90
22827;DHT22;11580;52.562;13.418;2024-02-21T13:40:35;18.00;28.00
22827;DHT22;11580;52.562;13.418;2024-02-21T13:43:03;18.00;27.90
22827;DHT22;11580;52.562;13.418;2024-02-21T13:45:31;18.00;27.80
22827;DHT22;11580;52.562;13.418;2024-02-21T13:47:59;18.00;27.30
22827;DHT22;11580;52.562;13.418;2024-02-21T13:50:30;17.90;27.60
22827;DHT22;11580;52.562;13.418;2024-02-21T13:52:58;17.90;27.40
22827;DHT22;11580;52.562;13.418;2024-02-21T13:55:25;17.90;27.60
22827;DHT22;11580;52.562;13.418;2024-02-21T13:57:52;17.90;27.60
22827;DHT22;11580;52.562;13.418;2024-02-21T14:00:20;17.80;27.40
22827;DHT22;11580;52.562;13.418;2024-02-21T14:02:49;17.80;27.40
22827;DHT22;11580;52.562;13.418;2024-02-21T14:05:16;17.80;27.60
22827;DHT22;11580;52.562;13.418;2024-02-21T14:07:43;17.70;27.20
22827;DHT22;11580;52.562;13.418;2024-02-21T14:10:10;17.60;27.20
22827;DHT22;11580;52.562;13.418;2024-02-21T14:12:37;17.60;27.30
22827;DHT22;11580;52.562;13.418;2024-02-21T14:15:06;17.50;27.30
22827;DHT22;11580;52.562;13.418;2024-02-21T14:17:34;17.50;27.30
22827;DHT22;11580;52.562;13.418;2024-02-21T14:20:03;17.40;27.40
22827;DHT22;11580;52.562;13.418;2024-02-21T14:22:31;17.40;27.20
22827;DHT22;11580;52.562;13.418;2024-02-21T14:24:58;17.30;27.50
22827;DHT22;11580;52.562;13.418;2024-02-21T14:27:26;17.30;27.60
22827;DHT22;11580;52.562;13.418;2024-02-21T14:29:53;17.30;28.10
22827;DHT22;11580;52.562;13.418;2024-02-21T14:32:21;17.30;27.60
22827;DHT22;11580;52.562;13.418;2024-02-21T14:34:48;17.30;27.60
22827;DHT22;11580;52.562;13.418;2024-02-21T14:37:17;17.20;27.50
22827;DHT22;11580;52.562;13.418;2024-02-21T14:39:44;17.20;27.40
22827;DHT22;11580;52.562;13.418;2024-02-21T14:42:11;17.20;27.60
22827;DHT22;11580;52.562;13.418;2024-02-21T14:44:38;17.20;27.40
22827;DHT22;11580;52.562;13.418;2024-02-21T14:47:06;17.20;27.40
22827;DHT22;11580;52.562;13.418;2024-02-21T14:49:33;17.10;27.30
22827;DHT22;11580;52.562;13.418;2024-02-21T14:52:01;17.10;27.40
22827;DHT22;11580;52.562;13.418;2024-02-21T14:54:30;17.10;27.40
22827;DHT22;11580;52.562;13.418;2024-02-21T14:56:57;17.10;27.10
22827;DHT22;11580;52.562;13.418;2024-02-21T14:59:24;17.00;27.30
22827;DHT22;11580;52.562;13.418;2024-02-21T15:01:51;17.00;27.40
22827;DHT22;11580;52.562;13.418;2024-02-21T15:04:18;17.00;27.30
22827;DHT22;11580;52.562;13.418;2024-02-21T15:06:45;17.00;27.90
22827;DHT22;11580;52.562;13.418;2024-02-21T15:09:14;17.00;27.30
22827;DHT22;11580;52.562;13.418;2024-02-21T15:11:42;16.90;27.20
22827;DHT22;11580;52.562;13.418;2024-02-21T15:14:09;16.90;27.60
22827;DHT22;11580;52.562;13.418;2024-02-21T15:16:37;16.90;27.40
22827;DHT22;11580;52.562;13.418;2024-02-21T15:19:05;16.90;27.30
22827;DHT22;11580;52.562;13.418;2024-02-21T15:21:32;16.90;27.40